台湾桃園国際空港 の過去48時間の天気

台湾桃園国際空港 (Chiang Kai Shek)

現在時刻: 1/18 18:29 CST (1/18 10:29 UTC) 以下の時間は現地時間です。

過去48時間のMETAR気象情報
時間 風向 風速(m/s) 視程 気温(℃) 湿度(%) 気圧(hPa) 天気現象
18 18:00 東北東 8 10km以上 14 77 1020
18 17:30 東北東 7 10km以上 14 77 1020
18 17:00 東北東 7 10km以上 14 77 1020
18 16:30 北東 8 10km以上 14 77 1020
18 16:00 北東 8 10km以上 14 77 1020
18 15:30 北東 8 10km以上 14 77 1020
18 15:00 北東 9 10km以上 14 77 1020
18 14:30 北東 8 10km以上 14 77 1020
18 14:00 北東 8 10km以上 14 77 1020
18 13:30 北東 9 10km以上 15 72 1020
18 13:00 北東 8 10km以上 14 77 1020
18 12:30 北東 7 10km以上 15 72 1021
18 12:00 北東 7 10km以上 14 77 1021
18 11:30 北東 8 10km以上 15 72 1022
18 11:00 北東 8 10km以上 14 77 1022
18 10:30 東北東 8 10km以上 15 72 1022
18 10:00 北東 8 10km以上 15 72 1022
18 09:30 東北東 8 10km以上 15 72 1022
18 09:00 東北東 7 10km以上 15 72 1022
18 08:30 東北東 7 10km以上 14 72 1022
18 08:00 東北東 6 10km以上 13 77 1022
18 07:30 東北東 6 10km以上 13 77 1022
18 07:00 北東 6 10km以上 13 77 1022
18 06:30 北東 7 10km以上 13 77 1022
18 06:00 北東 6 10km以上 13 77 1021
18 05:30 北東 6 10km以上 13 77 1021
18 05:00 北東 6 10km以上 13 77 1021
18 04:30 北東 6 10km以上 13 77 1021
18 04:00 北東 7 10km以上 13 82 1021
18 03:30 北東 7 10km以上 12 88 1021
18 03:00 北東 7 10km以上 13 82 1022
18 02:30 北東 7 10km以上 13 82 1022
18 02:00 北東 7 10km以上 13 82 1022
18 01:30 北東 6 10km以上 12 88 1022
18 01:22 北東 7 10km以上 12 88 1022
18 01:00 北東 7 10km以上 12 94 1022 弱い雨
18 00:30 北東 8 7000m 12 94 1022 弱い雨
18 00:00 北東 7 6000m 12 94 1022 弱い雨
17 23:36 北東 7 6000m 12 94 1022 弱い雨
17 23:00 北東 7 4000m 12 94 1022 弱い雨
17 22:33 北東 7 4000m 12 94 1022 弱い雨
17 22:00 北東 7 5000m 13 88 1022 弱い雨
17 21:52 北東 8 6000m 13 88 1022 弱い雨
17 21:30 北東 7 10km以上 13 88 1022 弱い雨
17 21:00 北東 7 8000m 13 88 1022 弱い雨
17 20:30 北東 8 8000m 13 88 1022 弱い雨
17 20:00 北東 8 8000m 13 88 1022 弱い雨
17 19:30 北東 8 8000m 13 94 1022 弱い雨
17 19:00 北東 9 5000m 13 94 1022 弱い雨
17 18:51 北東 9 5000m 13 94 1021 弱い雨
17 18:30 北東 8 4000m 13 94 1021 弱い雨
17 18:00 北東 8 4000m 13 94 1021 弱い雨
17 17:55 北東 8 4000m 13 94 1021 弱い雨
17 17:30 北東 8 5000m 13 94 1021 弱い雨
17 17:00 北東 8 5000m 13 94 1020 弱い雨
17 16:55 北東 8 4500m 13 94 1020 弱い雨 もや
17 16:48 北東 8 5000m 13 94 1020 弱い雨
17 16:30 北東 8 8000m 13 94 1020 弱い雨
17 16:12 北東 8 8000m 13 94 1020 弱い雨
17 16:00 北東 8 6000m 13 100 1020 弱い雨
17 15:42 北東 9 7000m 13 100 1020 弱い雨
17 15:30 北東 8 4500m 13 100 1020 弱い雨 もや
17 15:00 北東 8 4000m 14 94 1020 弱い雨 もや
17 14:30 北東 9 4500m 14 94 1020 弱い雨 もや
17 14:23 北東 8 4000m 14 94 1020 弱い雨 もや
17 14:00 北東 8 5000m 14 94 1020 弱い雨
17 13:30 北東 8 5000m 14 94 1020 弱い雨
17 13:00 北東 8 5000m 14 94 1020 弱い雨
17 12:30 北東 9 5000m 14 94 1021 弱い雨
17 12:00 北東 7 5000m 14 94 1021 弱い雨
17 11:30 北東 8 5000m 14 94 1021 弱い雨
17 11:25 北北東 8 5000m 14 94 1021 弱い雨
17 11:05 北北東 8 5000m 15 88 1021 弱い雨
17 10:30 北東 8 10km以上 14 94 1022 弱い雨
17 10:00 北東 9 10km以上 14 94 1022 弱い雨
17 09:30 北東 8 10km以上 14 94 1022 弱い雨
17 09:00 北東 8 10km以上 14 94 1022 弱い雨
17 08:50 北東 8 5000m 14 94 1022 弱い雨
17 08:30 北東 8 10km以上 14 94 1021 弱い雨
17 08:25 北東 8 10km以上 14 94 1021 弱い雨
17 08:00 北東 7 4000m 14 94 1021 弱い雨
17 07:30 北北東 7 3000m 14 94 1021 弱い雨
17 07:14 北北東 8 4000m 15 94 1021 弱い雨
17 07:00 北北東 8 8000m 15 94 1021 弱い雨
17 06:30 北北東 7 6000m 15 94 1020 弱い雨
17 06:00 北北東 7 5000m 15 94 1020 弱い雨
17 05:30 北北東 6 4000m 15 94 1020 弱い雨
17 05:24 北北東 6 4000m 15 94 1020 弱い雨
17 05:00 北北東 6 8000m 15 94 1020 弱い雨
17 04:30 北北東 6 8000m 15 94 1019 弱い雨
17 04:00 北北東 7 6000m 15 94 1019 弱い雨
17 03:51 北北東 7 6000m 15 94 1019 弱い雨
17 03:30 北北東 6 4500m 15 94 1019 弱い雨
17 03:15 北北東 5 3000m 15 94 1019 弱い雨
17 03:00 北北東 6 4000m 15 94 1019 弱い雨
17 02:45 北北東 5 5000m 16 88 1019 弱い雨
17 02:30 北北東 5 10km以上 16 94 1019
17 02:19 北北東 5 10km以上 16 94 1019
17 02:00 北北東 5 10km以上 16 94 1019
17 01:30 北北東 6 10km以上 16 94 1019
17 01:00 北北東 6 10km以上 16 94 1019
17 00:51 北北東 6 10km以上 16 94 1019
17 00:30 北北東 6 10km以上 16 94 1019
17 00:00 北北東 5 10km以上 17 88 1019
16 23:30 北北東 4 10km以上 17 88 1019
16 23:00 北北東 3 10km以上 17 88 1019
16 22:30 北北東 3 10km以上 17 88 1019
16 22:00 北北東 4 10km以上 17 88 1019
16 21:30 北北東 4 10km以上 17 88 1019
16 21:00 北北東 5 10km以上 17 88 1019
16 20:30 北北東 3 10km以上 17 94 1019
16 20:00 北北東 4 10km以上 17 94 1019
16 19:30 北北東 4 10km以上 17 94 1018
16 19:00 北北東 2 10km以上 17 88 1018
16 18:30 北東 3 10km以上 16 94 1018
RCTP 181000Z 07015KT 9999 FEW015 BKN024 BKN035 14/10 Q1020 NOSIG RMK A3013
RCTP 180930Z 06014KT 9999 FEW015 BKN024 BKN035 14/10 Q1020 NOSIG RMK A3013
RCTP 180900Z 06014KT 9999 FEW015 BKN024 BKN035 14/10 Q1020 NOSIG RMK A3013
RCTP 180830Z 05015KT 9999 FEW015 BKN024 BKN035 14/10 Q1020 NOSIG RMK A3013
RCTP 180800Z 05015KT 9999 FEW015 BKN024 BKN035 14/10 Q1020 NOSIG RMK A3013
RCTP 180730Z 05016KT 9999 FEW015 BKN024 BKN035 14/10 Q1020 NOSIG RMK A3012
RCTP 180700Z 05018KT 9999 FEW015 BKN024 BKN035 14/10 Q1020 NOSIG RMK A3012
RCTP 180630Z 05016KT 9999 FEW015 BKN024 BKN035 14/10 Q1020 NOSIG RMK A3013
RCTP 180600Z 05016KT 9999 FEW015 BKN024 BKN035 14/10 Q1020 NOSIG RMK A3013
RCTP 180530Z 05017KT 9999 FEW015 BKN024 BKN035 15/10 Q1020 NOSIG RMK A3013
RCTP 180500Z 05015KT 9999 FEW015 BKN025 BKN035 14/10 Q1020 NOSIG RMK A3014
RCTP 180430Z 05013KT 9999 FEW015 BKN025 BKN035 15/10 Q1021 NOSIG RMK A3016
RCTP 180400Z 05014KT 9999 FEW015 BKN025 BKN035 14/10 Q1021 NOSIG RMK A3017
RCTP 180330Z 05015KT 9999 FEW015 BKN025 BKN035 15/10 Q1022 NOSIG RMK A3019
RCTP 180300Z 05016KT 9999 FEW015 BKN025 BKN035 14/10 Q1022 NOSIG RMK A3020
RCTP 180230Z 06016KT 9999 FEW015 BKN025 BKN035 15/10 Q1022 NOSIG RMK A3020
RCTP 180200Z 05015KT 9999 FEW015 BKN025 BKN035 15/10 Q1022 NOSIG RMK A3020
RCTP 180130Z 06015KT 9999 FEW015 BKN025 BKN035 15/10 Q1022 NOSIG RMK A3020
RCTP 180100Z 07013KT 9999 FEW015 BKN025 BKN035 15/10 Q1022 NOSIG RMK A3020
RCTP 180030Z 07013KT 9999 FEW015 BKN030 14/09 Q1022 NOSIG RMK A3020
RCTP 180000Z 07012KT 9999 FEW015 BKN030 13/09 Q1022 NOSIG RMK A3020
RCTP 172330Z 07012KT 9999 FEW012 BKN025 BKN035 13/09 Q1022 NOSIG RMK A3019
RCTP 172300Z 05012KT 9999 FEW012 BKN025 BKN035 13/09 Q1022 NOSIG RMK A3018
RCTP 172230Z 05013KT 9999 FEW012 BKN025 BKN035 13/09 Q1022 NOSIG RMK A3018
RCTP 172200Z 04012KT 9999 FEW012 BKN025 BKN035 13/09 Q1021 NOSIG RMK A3017
RCTP 172130Z 04011KT 9999 FEW012 BKN025 BKN035 13/09 Q1021 NOSIG RMK A3017
RCTP 172100Z 04012KT 9999 FEW012 BKN025 BKN035 13/09 Q1021 NOSIG RMK A3017
RCTP 172030Z 05012KT 9999 FEW012 BKN020 BKN035 13/09 Q1021 NOSIG RMK A3016
RCTP 172000Z 05013KT 9999 FEW012 BKN020 BKN035 13/10 Q1021 NOSIG RMK A3017
RCTP 171930Z 05013KT 9999 FEW012 BKN020 BKN035 12/10 Q1021 NOSIG RMK A3017
RCTP 171900Z 04014KT 9999 FEW012 BKN025 BKN035 13/10 Q1022 NOSIG RMK A3018
RCTP 171830Z 04013KT 9999 FEW012 BKN025 BKN035 13/10 Q1022 NOSIG RMK A3018
RCTP 171800Z 04014KT 9999 FEW012 BKN020 BKN035 13/10 Q1022 NOSIG RMK A3019
RCTP 171730Z 05012KT 9999 FEW012 BKN020 BKN035 12/10 Q1022 NOSIG RMK A3019
RCTP 171722Z 05013KT 9999 FEW012 BKN020 BKN035 12/10 Q1022 NOSIG RMK A3019
RCTP 171700Z 04013KT 9999 -RA FEW008 BKN012 BKN025 12/11 Q1022 NOSIG RMK A3019
RCTP 171630Z 04015KT 7000 -RA SCT006 BKN010 BKN020 12/11 Q1022 NOSIG RMK A3020
RCTP 171600Z 04014KT 6000 -RA SCT006 BKN008 BKN015 12/11 Q1022 NOSIG RMK A3020 RA AMT 0.2MM
RCTP 171536Z 04013KT 6000 -RA SCT006 BKN008 BKN015 12/11 Q1022 NOSIG RMK A3020
RCTP 171500Z 04014KT 4000 -RA SCT006 BKN008 BKN015 12/11 Q1022 NOSIG RMK A3020 RA AMT 0.2MM
RCTP 171433Z 04014KT 4000 -RA SCT006 BKN008 BKN020 12/11 Q1022 NOSIG RMK A3020
RCTP 171400Z 04014KT 5000 -RA SCT006 BKN010 BKN020 13/11 Q1022 NOSIG RMK A3020 RA AMT 0.2MM
RCTP 171352Z 04015KT 6000 -RA FEW008 BKN012 BKN025 13/11 Q1022 NOSIG RMK A3020
RCTP 171330Z 05014KT 9999 -RA FEW008 BKN015 BKN025 13/11 Q1022 NOSIG RMK A3019
RCTP 171300Z 04014KT 8000 -RA SCT006 BKN012 BKN025 13/11 Q1022 NOSIG RMK A3019
RCTP 171230Z 04015KT 8000 -RA SCT006 BKN010 BKN022 13/11 Q1022 NOSIG RMK A3019
RCTP 171200Z 05016KT 8000 -RA SCT006 BKN008 BKN020 13/11 Q1022 NOSIG RMK A3019
RCTP 171130Z 04016KT 8000 -RA SCT004 BKN006 BKN015 13/12 Q1022 NOSIG RMK A3019
RCTP 171100Z 04017KT 5000 -RA SCT004 BKN006 BKN015 13/12 Q1022 NOSIG RMK A3018 RA AMT 0.2MM
RCTP 171051Z 04017KT 5000 -RA SCT004 BKN006 BKN015 13/12 Q1021 NOSIG RMK A3017
RCTP 171030Z 04016KT 4000 -RA SCT004 BKN006 BKN015 13/12 Q1021 NOSIG RMK A3017
RCTP 171000Z 04016KT 4000 -RA SCT004 BKN006 BKN015 13/12 Q1021 NOSIG RMK A3017
RCTP 170955Z 04016KT 4000 -RA SCT004 BKN006 BKN015 13/12 Q1021 NOSIG RMK A3017
RCTP 170930Z 04016KT 5000 -RA SCT004 BKN006 BKN015 13/12 Q1021 NOSIG RMK A3016
RCTP 170900Z 04016KT 5000 -RA SCT004 BKN006 BKN015 13/12 Q1020 NOSIG RMK A3014
RCTP 170855Z 04016KT 4500 -RA BR SCT004 BKN006 BKN015 13/12 Q1020 NOSIG RMK A3014
RCTP 170848Z 04016KT 5000 -RA SCT006 BKN008 BKN015 13/12 Q1020 NOSIG RMK A3014
RCTP 170830Z 04016KT 8000 -RA SCT006 BKN008 BKN015 13/12 Q1020 NOSIG RMK A3014
RCTP 170812Z 04015KT 8000 -RA SCT006 BKN008 BKN015 13/12 Q1020 NOSIG RMK A3014
RCTP 170800Z 04016KT 6000 -RA SCT004 BKN006 BKN010 13/13 Q1020 NOSIG RMK A3013 RA AMT 0.2MM
RCTP 170742Z 05017KT 7000 -RA SCT004 BKN006 BKN010 13/13 Q1020 NOSIG RMK A3012
RCTP 170730Z 04015KT 4500 -RA BR SCT004 BKN006 BKN010 13/13 Q1020 NOSIG RMK A3012
RCTP 170700Z 04016KT 4000 -RA BR SCT004 BKN006 BKN010 14/13 Q1020 NOSIG RMK A3012
RCTP 170630Z 04017KT 4500 -RA BR SCT004 BKN006 BKN010 14/13 Q1020 NOSIG RMK A3012
RCTP 170623Z 04016KT 4000 -RA BR SCT003 BKN005 BKN009 14/13 Q1020 NOSIG RMK A3012
RCTP 170600Z 04016KT 5000 -RA SCT003 BKN005 BKN009 14/13 Q1020 NOSIG RMK A3012 RA AMT 0.2MM
RCTP 170530Z 04016KT 5000 -RA SCT003 BKN005 BKN009 14/13 Q1020 NOSIG RMK A3013
RCTP 170500Z 04015KT 5000 -RA FEW004 BKN006 BKN012 14/13 Q1020 NOSIG RMK A3014 RA AMT 0.4MM
RCTP 170430Z 04018KT 5000 -RA FEW004 BKN006 BKN012 14/13 Q1021 NOSIG RMK A3015
RCTP 170400Z 04014KT 5000 -RA FEW004 BKN006 BKN012 14/13 Q1021 NOSIG RMK A3016 RA AMT 0.2MM
RCTP 170330Z 04015KT 5000 -RA FEW004 BKN006 BKN012 14/13 Q1021 NOSIG RMK A3017
RCTP 170325Z 03015KT 5000 -RA FEW004 BKN006 BKN012 14/13 Q1021 NOSIG RMK A3017
RCTP 170305Z 03016KT 5000 -RA SCT006 BKN010 BKN014 15/13 Q1021 NOSIG RMK A3017
RCTP 170230Z 04016KT 9999 -RA SCT006 BKN009 BKN014 14/13 Q1022 NOSIG RMK A3019
RCTP 170200Z 04017KT 9999 -RA SCT006 BKN010 BKN013 14/13 Q1022 NOSIG RMK A3018
RCTP 170130Z 04016KT 9999 -RA SCT006 BKN010 BKN013 14/13 Q1022 NOSIG RMK A3019
RCTP 170100Z 04016KT 9999 -RA SCT006 BKN009 BKN013 14/13 Q1022 NOSIG RMK A3018
RCTP 170050Z 04015KT 5000 -RA SCT006 BKN009 BKN013 14/13 Q1022 NOSIG RMK A3018
RCTP 170030Z 04015KT 9999 -RA SCT003 BKN006 BKN012 14/13 Q1021 NOSIG RMK A3017
RCTP 170025Z 04015KT 9999 -RA SCT003 BKN006 BKN012 14/13 Q1021 NOSIG RMK A3017
RCTP 170000Z 04014KT 4000 -RA SCT003 BKN005 BKN008 14/13 Q1021 NOSIG RMK A3016
RCTP 162330Z 03014KT 3000 -RA SCT003 BKN005 BKN009 14/13 Q1021 NOSIG RMK A3016
RCTP 162314Z 02015KT 4000 -RA FEW003 BKN006 BKN009 15/14 Q1021 NOSIG RMK A3016
RCTP 162300Z 03015KT 8000 -RA FEW003 BKN006 BKN009 15/14 Q1021 NOSIG RMK A3015
RCTP 162230Z 03014KT 6000 -RA FEW003 BKN005 BKN008 15/14 Q1020 NOSIG RMK A3013
RCTP 162200Z 02013KT 5000 -RA FEW003 BKN005 BKN008 15/14 Q1020 NOSIG RMK A3013 RA AMT 0.2MM
RCTP 162130Z 03012KT 4000 -RA SCT003 BKN005 BKN008 15/14 Q1020 NOSIG RMK A3012
RCTP 162124Z 03012KT 4000 -RA SCT003 BKN005 BKN008 15/14 Q1020 NOSIG RMK A3012
RCTP 162100Z 02012KT 8000 -RA FEW003 BKN006 BKN010 15/14 Q1020 NOSIG RMK A3012
RCTP 162030Z 03012KT 8000 -RA FEW003 BKN006 BKN010 15/14 Q1019 NOSIG RMK A3011
RCTP 162000Z 03013KT 6000 -RA FEW003 BKN005 BKN008 15/14 Q1019 NOSIG RMK A3010
RCTP 161951Z 02013KT 6000 -RA FEW003 BKN005 BKN008 15/14 Q1019 NOSIG RMK A3010
RCTP 161930Z 02012KT 4500 -RA FEW003 BKN005 BKN008 15/14 Q1019 NOSIG RMK A3010
RCTP 161915Z 03010KT 3000 -RA FEW003 BKN005 BKN008 15/14 Q1019 NOSIG RMK A3010
RCTP 161900Z 02011KT 4000 -RA FEW003 BKN006 BKN008 15/14 Q1019 NOSIG RMK A3010
RCTP 161845Z 02010KT 5000 -RA SCT006 BKN008 BKN013 16/14 Q1019 NOSIG RMK A3010
RCTP 161830Z 03010KT 9999 FEW006 BKN010 BKN015 16/15 Q1019 NOSIG RMK A3009
RCTP 161819Z 03009KT 9999 FEW006 BKN010 BKN015 16/15 Q1019 NOSIG RMK A3010
RCTP 161800Z 03009KT 9999 SCT006 BKN008 BKN015 16/15 Q1019 NOSIG RMK A3010
RCTP 161730Z 03011KT 9999 SCT006 BKN008 BKN015 16/15 Q1019 NOSIG RMK A3010
RCTP 161700Z 03012KT 9999 SCT007 BKN009 BKN015 16/15 Q1019 NOSIG RMK A3010
RCTP 161651Z 03012KT 9999 SCT007 BKN009 BKN015 16/15 Q1019 NOSIG RMK A3010
RCTP 161630Z 03011KT 9999 SCT009 BKN012 BKN022 16/15 Q1019 NOSIG RMK A3010
RCTP 161600Z 02009KT 9999 SCT010 BKN016 BKN025 17/15 Q1019 NOSIG RMK A3010
RCTP 161530Z 03008KT 9999 SCT010 BKN028 17/15 Q1019 NOSIG RMK A3010
RCTP 161500Z 03005KT 9999 SCT010 BKN028 17/15 Q1019 NOSIG RMK A3010
RCTP 161430Z 03006KT 9999 FEW010 SCT016 BKN025 17/15 Q1019 NOSIG RMK A3010
RCTP 161400Z 02007KT 9999 SCT010 BKN016 BKN025 17/15 Q1019 NOSIG RMK A3010
RCTP 161330Z 03008KT 9999 SCT010 BKN016 17/15 Q1019 NOSIG RMK A3009
RCTP 161300Z 03009KT 9999 SCT010 BKN016 17/15 Q1019 NOSIG RMK A3009
RCTP 161230Z 03006KT 9999 SCT012 BKN020 17/16 Q1019 NOSIG RMK A3009
RCTP 161200Z 03007KT 9999 FEW010 SCT013 BKN020 17/16 Q1019 NOSIG RMK A3009
RCTP 161130Z 03007KT 9999 FEW010 SCT013 BKN020 17/16 Q1018 NOSIG RMK A3008
RCTP 161100Z 03004KT 9999 FEW010 SCT013 BKN020 17/15 Q1018 NOSIG RMK A3008
RCTP 161030Z 04005KT 9999 FEW010 SCT013 BKN020 16/15 Q1018 NOSIG RMK A3007